createdAt,value
2023-05-19T00:01:15.335Z,12.30
2023-05-19T00:04:05.157Z,6.57
2023-05-19T00:06:32.900Z,8.50
2023-05-19T00:09:01.987Z,8.60
2023-05-19T00:11:29.529Z,8.63
2023-05-19T00:13:59.130Z,7.43
2023-05-19T00:16:28.161Z,7.60
2023-05-19T00:18:55.404Z,9.55
2023-05-19T00:21:22.098Z,9.75
2023-05-19T00:23:49.131Z,7.28
2023-05-19T00:26:15.811Z,8.70
2023-05-19T00:28:51.414Z,8.40
2023-05-19T00:31:18.512Z,8.00
2023-05-19T00:33:45.398Z,6.82
2023-05-19T00:36:12.896Z,7.43
2023-05-19T00:38:39.748Z,10.52
2023-05-19T00:41:07.092Z,9.48
2023-05-19T00:43:37.093Z,8.65
2023-05-19T00:46:04.437Z,8.63
2023-05-19T00:48:31.079Z,8.10
2023-05-19T00:51:04.908Z,10.52
2023-05-19T00:53:33.769Z,6.53
2023-05-19T00:56:01.689Z,8.80
2023-05-19T00:58:30.484Z,6.68
2023-05-19T01:01:07.310Z,7.70
2023-05-19T01:03:35.822Z,9.55
2023-05-19T01:06:07.350Z,7.00
2023-05-19T01:08:38.380Z,7.50
2023-05-19T01:11:06.805Z,6.25
2023-05-19T01:13:38.147Z,8.32
2023-05-19T01:16:12.785Z,7.85
2023-05-19T01:21:45.150Z,6.78
2023-05-19T01:24:39.951Z,6.20
2023-05-19T01:27:33.738Z,7.18
2023-05-19T01:30:25.652Z,8.70
2023-05-19T01:32:59.866Z,7.20
2023-05-19T01:35:28.012Z,5.82
2023-05-19T01:37:59.386Z,7.85
2023-05-19T01:40:27.323Z,6.25
2023-05-19T01:42:57.821Z,6.30
2023-05-19T01:45:28.686Z,7.03
2023-05-19T01:47:57.873Z,7.78
2023-05-19T01:50:26.019Z,5.65
2023-05-19T01:52:52.736Z,6.45
2023-05-19T01:55:21.243Z,5.07
2023-05-19T01:57:50.998Z,5.45
2023-05-19T02:00:26.759Z,5.30
2023-05-19T02:03:15.520Z,6.47
2023-05-19T02:06:22.828Z,6.40
2023-05-19T02:09:16.078Z,6.22
2023-05-19T02:11:54.692Z,4.88
2023-05-19T02:14:30.152Z,5.10
2023-05-19T02:16:59.096Z,4.80
2023-05-19T02:19:29.356Z,5.50
2023-05-19T02:21:57.017Z,5.72
2023-05-19T02:24:23.842Z,5.72
2023-05-19T02:26:52.121Z,6.07
2023-05-19T02:29:21.806Z,5.40
2023-05-19T02:31:50.343Z,5.18
2023-05-19T02:34:17.004Z,5.47
2023-05-19T02:36:43.695Z,5.82
2023-05-19T02:39:11.122Z,5.65
2023-05-19T02:41:39.643Z,4.88
2023-05-19T02:44:06.402Z,5.72
2023-05-19T02:46:34.107Z,6.10
2023-05-19T02:49:00.782Z,5.47
2023-05-19T02:51:27.722Z,5.20
2023-05-19T02:53:54.557Z,5.57
2023-05-19T02:56:21.740Z,5.85
2023-05-19T02:58:48.418Z,6.40
2023-05-19T03:01:15.815Z,5.35
2023-05-19T03:03:42.569Z,5.75
2023-05-19T03:06:09.515Z,5.65
2023-05-19T03:08:40.132Z,6.90
2023-05-19T03:11:09.257Z,7.57
2023-05-19T03:13:35.877Z,5.28
2023-05-19T03:16:03.469Z,5.90
2023-05-19T03:18:30.666Z,5.25
2023-05-19T03:20:57.716Z,5.13
2023-05-19T03:23:24.771Z,5.55
2023-05-19T03:25:51.681Z,5.88
2023-05-19T03:28:18.314Z,6.30
2023-05-19T03:30:45.247Z,6.05
2023-05-19T03:33:17.279Z,6.00
2023-05-19T03:35:44.780Z,5.85
2023-05-19T03:38:12.171Z,6.05
2023-05-19T03:40:41.809Z,5.57
2023-05-19T03:43:11.052Z,5.70
2023-05-19T03:45:45.398Z,5.75
2023-05-19T03:48:32.723Z,6.22
2023-05-19T03:51:23.223Z,6.88
2023-05-19T03:53:53.246Z,6.22
2023-05-19T03:56:23.030Z,5.50
2023-05-19T03:58:49.927Z,6.00
2023-05-19T04:01:16.606Z,6.60
2023-05-19T04:03:43.512Z,6.53
2023-05-19T04:06:10.155Z,6.35
2023-05-19T04:08:36.888Z,6.25
2023-05-19T04:11:04.606Z,6.50
2023-05-19T04:13:33.967Z,6.63
2023-05-19T04:16:01.431Z,6.45
2023-05-19T04:18:29.196Z,6.60
2023-05-19T04:20:56.239Z,6.45
2023-05-19T04:23:23.224Z,7.05
2023-05-19T04:25:50.055Z,7.25
2023-05-19T04:28:18.204Z,6.60
2023-05-19T04:30:46.536Z,7.25
2023-05-19T04:33:13.962Z,6.68
2023-05-19T04:35:42.130Z,6.47
2023-05-19T04:38:12.026Z,6.57
2023-05-19T04:40:40.413Z,7.07
2023-05-19T04:43:09.495Z,7.05
2023-05-19T04:45:37.725Z,6.80
2023-05-19T04:48:05.333Z,7.30
2023-05-19T04:50:32.769Z,7.60
2023-05-19T04:53:00.480Z,6.90
2023-05-19T04:55:27.589Z,7.30
2023-05-19T04:57:54.235Z,6.72
2023-05-19T05:00:23.022Z,6.30
2023-05-19T05:02:57.679Z,6.13
2023-05-19T05:05:26.064Z,6.05
2023-05-19T05:07:54.055Z,6.30
2023-05-19T05:10:22.339Z,5.72
2023-05-19T05:12:49.839Z,6.35
2023-05-19T05:15:17.501Z,6.47
2023-05-19T05:17:46.674Z,7.00
2023-05-19T05:20:14.350Z,6.45
2023-05-19T05:22:42.107Z,6.22
2023-05-19T05:25:10.050Z,6.85
2023-05-19T05:27:37.773Z,5.50
2023-05-19T05:30:06.911Z,6.00
2023-05-19T05:32:33.989Z,5.93
2023-05-19T05:35:03.230Z,5.65
2023-05-19T05:37:31.181Z,5.80
2023-05-19T05:39:57.936Z,5.50
2023-05-19T05:42:25.325Z,6.22
2023-05-19T05:44:53.033Z,5.95
2023-05-19T05:47:20.225Z,5.88
2023-05-19T05:49:48.740Z,5.35
2023-05-19T05:52:19.737Z,5.72
2023-05-19T05:54:51.179Z,5.60
2023-05-19T05:57:19.960Z,6.10
2023-05-19T05:59:47.321Z,5.50
2023-05-19T06:02:14.794Z,6.07
2023-05-19T06:04:41.762Z,6.20
2023-05-19T06:07:08.937Z,6.57
2023-05-19T06:09:37.965Z,6.05
2023-05-19T06:12:07.350Z,6.03
2023-05-19T06:14:39.799Z,5.65
2023-05-19T06:17:36.124Z,5.40
2023-05-19T06:20:05.519Z,5.88
2023-05-19T06:22:32.376Z,5.53
2023-05-19T06:25:00.700Z,6.03
2023-05-19T06:27:27.643Z,5.30
2023-05-19T06:29:54.474Z,5.65
2023-05-19T06:32:21.521Z,5.57
2023-05-19T06:34:54.293Z,5.20
2023-05-19T06:37:24.285Z,5.53
2023-05-19T06:39:53.046Z,5.88
2023-05-19T06:42:24.153Z,5.28
2023-05-19T06:45:11.014Z,5.47
2023-05-19T06:47:40.939Z,5.70
2023-05-19T06:50:08.991Z,5.28
2023-05-19T06:52:37.732Z,5.03
2023-05-19T06:55:04.827Z,5.63
2023-05-19T06:57:32.744Z,5.80
2023-05-19T07:00:01.202Z,5.72
2023-05-19T07:02:28.347Z,5.80
2023-05-19T07:04:55.418Z,5.22
2023-05-19T07:07:22.692Z,5.18
2023-05-19T07:09:50.367Z,5.72
2023-05-19T07:12:17.837Z,5.35
2023-05-19T07:14:44.751Z,5.40
2023-05-19T07:17:12.923Z,5.63
2023-05-19T07:19:43.792Z,4.97
2023-05-19T07:22:10.511Z,5.20
2023-05-19T07:24:37.238Z,5.00
2023-05-19T07:27:04.413Z,5.07
2023-05-19T07:29:31.410Z,4.53
2023-05-19T07:31:58.566Z,4.78
2023-05-19T07:34:25.338Z,4.97
2023-05-19T07:36:52.191Z,4.93
2023-05-19T07:39:19.337Z,4.95
2023-05-19T07:41:52.577Z,4.82
2023-05-19T07:44:19.394Z,5.35
2023-05-19T07:46:46.250Z,5.22
2023-05-19T07:49:13.037Z,5.28
2023-05-19T07:51:41.995Z,4.78
2023-05-19T07:54:08.955Z,4.75
2023-05-19T07:56:35.715Z,4.50
2023-05-19T07:59:04.773Z,4.72
2023-05-19T08:01:32.950Z,4.45
2023-05-19T08:04:00.231Z,4.60
2023-05-19T08:06:28.076Z,4.68
2023-05-19T08:08:54.690Z,4.43
2023-05-19T08:11:21.633Z,4.53
2023-05-19T08:13:51.775Z,4.60
2023-05-19T08:16:18.746Z,4.15
2023-05-19T08:18:45.524Z,4.50
2023-05-19T08:21:12.340Z,4.55
2023-05-19T08:23:39.100Z,4.40
2023-05-19T08:26:05.843Z,3.60
2023-05-19T08:28:33.602Z,3.88
2023-05-19T08:31:00.534Z,4.03
2023-05-19T08:33:27.384Z,4.32
2023-05-19T08:35:57.574Z,4.07
2023-05-19T08:38:28.224Z,4.05
2023-05-19T08:40:55.247Z,4.30
2023-05-19T08:43:22.151Z,3.80
2023-05-19T08:45:48.913Z,3.30
2023-05-19T08:48:18.338Z,3.70
2023-05-19T08:51:00.619Z,3.90
2023-05-19T08:53:36.697Z,3.60
2023-05-19T08:56:17.971Z,3.75
2023-05-19T08:58:46.024Z,3.50
2023-05-19T09:01:17.117Z,3.05
2023-05-19T09:03:47.486Z,3.38
2023-05-19T09:06:14.472Z,3.63
2023-05-19T09:08:42.540Z,3.47
2023-05-19T09:11:10.263Z,3.83
2023-05-19T09:13:36.970Z,4.10
2023-05-19T09:16:04.560Z,3.63
2023-05-19T09:18:31.892Z,3.80
2023-05-19T09:21:03.217Z,2.63
2023-05-19T09:23:34.133Z,3.20
2023-05-19T09:26:07.767Z,3.05
2023-05-19T09:28:36.364Z,3.40
2023-05-19T09:31:09.975Z,3.35
2023-05-19T09:33:45.500Z,3.95
2023-05-19T09:36:13.629Z,3.50
2023-05-19T09:38:40.521Z,3.75
2023-05-19T09:41:09.171Z,3.25
2023-05-19T09:43:36.381Z,2.75
2023-05-19T09:46:09.218Z,1.83
2023-05-19T09:48:37.589Z,1.77
2023-05-19T09:51:07.577Z,1.70
2023-05-19T09:53:34.803Z,1.95
2023-05-19T09:56:02.422Z,2.65
2023-05-19T09:58:37.063Z,3.10
2023-05-19T10:01:05.359Z,2.65
2023-05-19T10:03:33.475Z,2.55
2023-05-19T10:06:04.968Z,2.13
2023-05-19T10:08:33.726Z,2.30
2023-05-19T10:11:01.079Z,1.92
2023-05-19T10:13:29.703Z,1.80
2023-05-19T10:15:59.788Z,1.67
2023-05-19T10:18:27.909Z,2.00
2023-05-19T10:20:56.076Z,2.50
2023-05-19T10:23:24.040Z,2.33
2023-05-19T10:25:54.792Z,2.08
2023-05-19T10:28:25.411Z,2.00
2023-05-19T10:30:56.834Z,2.40
2023-05-19T10:33:43.763Z,2.65
2023-05-19T10:36:35.413Z,2.17
2023-05-19T10:39:09.827Z,2.40
2023-05-19T10:42:08.946Z,1.80
2023-05-19T10:44:54.553Z,2.30
2023-05-19T10:47:25.453Z,2.95
2023-05-19T10:49:55.912Z,2.50
2023-05-19T10:52:29.625Z,2.53
2023-05-19T10:54:58.400Z,1.73
2023-05-19T10:57:32.156Z,2.10
2023-05-19T11:00:11.670Z,2.33
2023-05-19T11:02:43.182Z,2.40
2023-05-19T11:05:16.271Z,1.77
2023-05-19T11:07:47.793Z,2.25
2023-05-19T11:10:22.429Z,2.92
2023-05-19T11:15:18.597Z,2.03
2023-05-19T11:17:48.901Z,1.90
2023-05-19T11:20:26.998Z,2.33
2023-05-19T11:23:05.801Z,2.55
2023-05-19T11:25:44.747Z,2.25
2023-05-19T11:28:14.416Z,2.42
2023-05-19T11:30:46.836Z,2.30
2023-05-19T11:33:14.133Z,2.13
2023-05-19T11:35:41.434Z,2.10
2023-05-19T11:38:08.708Z,2.00
2023-05-19T11:40:35.862Z,1.92
2023-05-19T11:43:02.675Z,2.28
2023-05-19T11:45:32.681Z,2.20
2023-05-19T11:48:03.154Z,2.00
2023-05-19T11:50:31.875Z,2.63
2023-05-19T11:53:00.948Z,2.30
2023-05-19T11:55:27.928Z,2.22
2023-05-19T11:58:03.970Z,2.05
2023-05-19T12:00:39.320Z,1.85
2023-05-19T12:03:06.871Z,2.08
2023-05-19T12:05:39.945Z,2.00
2023-05-19T12:08:08.979Z,2.00
2023-05-19T12:10:35.913Z,2.30
2023-05-19T12:13:06.313Z,2.40
2023-05-19T12:15:33.706Z,2.60
2023-05-19T12:18:02.125Z,2.40
2023-05-19T12:20:35.627Z,2.53
2023-05-19T12:23:03.696Z,2.38
2023-05-19T12:25:31.744Z,2.25
2023-05-19T12:28:00.477Z,2.55
2023-05-19T12:30:29.004Z,2.40
2023-05-19T12:32:57.838Z,2.35
2023-05-19T12:35:30.040Z,2.38
2023-05-19T12:37:57.712Z,2.17
2023-05-19T12:40:26.206Z,2.30
2023-05-19T12:42:59.110Z,2.65
2023-05-19T12:45:28.320Z,2.58
2023-05-19T12:47:56.209Z,2.53
2023-05-19T12:50:31.401Z,2.55
2023-05-19T12:52:59.898Z,2.30
2023-05-19T12:55:26.848Z,2.75
2023-05-19T12:57:59.551Z,2.55
2023-05-19T13:00:29.011Z,2.80
2023-05-19T13:03:01.756Z,2.80
2023-05-19T13:05:30.433Z,2.85
2023-05-19T13:07:58.866Z,2.40
2023-05-19T13:10:29.744Z,2.58
2023-05-19T13:12:57.042Z,2.63
2023-05-19T13:15:26.151Z,2.40
2023-05-19T13:17:54.122Z,2.97
2023-05-19T13:20:21.892Z,2.42
2023-05-19T13:22:49.615Z,3.10
2023-05-19T13:25:16.383Z,2.70
2023-05-19T13:27:45.974Z,2.35
2023-05-19T13:30:18.636Z,2.40
2023-05-19T13:32:46.014Z,2.90
2023-05-19T13:35:14.999Z,2.53
2023-05-19T13:37:42.748Z,2.33
2023-05-19T13:40:10.176Z,2.60
2023-05-19T13:42:37.011Z,2.30
2023-05-19T13:45:05.112Z,2.45
2023-05-19T13:47:32.186Z,2.33
2023-05-19T13:49:58.858Z,2.10
2023-05-19T13:52:28.141Z,1.90
2023-05-19T13:54:56.684Z,2.88
2023-05-19T13:57:24.053Z,2.72
2023-05-19T14:00:01.759Z,2.42
2023-05-19T14:02:39.612Z,2.85
2023-05-19T14:05:07.493Z,2.38
2023-05-19T14:07:35.126Z,2.40
2023-05-19T14:10:03.938Z,2.40
2023-05-19T14:12:41.593Z,2.20
2023-05-19T14:15:17.632Z,2.10
2023-05-19T14:17:44.432Z,2.28
2023-05-19T14:20:12.090Z,2.28
2023-05-19T14:22:38.683Z,2.55
2023-05-19T14:25:05.959Z,2.33
2023-05-19T14:27:34.594Z,2.60
2023-05-19T14:30:01.366Z,2.58
2023-05-19T14:32:30.210Z,2.40
2023-05-19T14:34:57.462Z,2.33
2023-05-19T14:37:26.524Z,2.30
2023-05-19T14:39:53.591Z,2.25
2023-05-19T14:42:20.124Z,2.35
2023-05-19T14:44:46.833Z,2.80
2023-05-19T14:47:13.852Z,2.50
2023-05-19T14:49:40.770Z,2.28
2023-05-19T14:52:07.512Z,2.63
2023-05-19T14:54:34.373Z,2.53
2023-05-19T14:57:01.638Z,2.22
2023-05-19T14:59:29.718Z,2.20
2023-05-19T15:01:56.332Z,2.53
2023-05-19T15:04:23.263Z,2.35
2023-05-19T15:06:58.130Z,2.20
2023-05-19T15:09:32.422Z,2.13
2023-05-19T15:12:01.277Z,2.58
2023-05-19T15:14:30.478Z,2.42
2023-05-19T15:16:58.044Z,2.20
2023-05-19T15:19:25.034Z,1.95
2023-05-19T15:21:51.775Z,2.25
2023-05-19T15:24:19.172Z,2.20
2023-05-19T15:26:47.180Z,2.40
2023-05-19T15:29:13.885Z,2.08
2023-05-19T15:31:40.729Z,2.10
2023-05-19T15:34:07.531Z,2.20
2023-05-19T15:36:34.246Z,2.50
2023-05-19T15:39:01.039Z,2.60
2023-05-19T15:41:27.994Z,2.28
2023-05-19T15:43:54.908Z,3.08
2023-05-19T15:46:21.674Z,2.30
2023-05-19T15:48:48.312Z,2.60
2023-05-19T15:51:15.063Z,2.47
2023-05-19T15:53:42.057Z,2.50
2023-05-19T15:56:08.997Z,2.30
2023-05-19T15:58:35.855Z,2.22
2023-05-19T16:01:02.986Z,2.08
2023-05-19T16:03:30.231Z,2.08
2023-05-19T16:05:57.158Z,2.00
2023-05-19T16:08:24.060Z,2.25
2023-05-19T16:10:51.903Z,2.42
2023-05-19T16:13:18.799Z,2.00
2023-05-19T16:15:45.803Z,2.92
2023-05-19T16:18:14.073Z,2.15
2023-05-19T16:20:41.060Z,2.10
2023-05-19T16:23:08.003Z,1.95
2023-05-19T16:25:34.826Z,2.15
2023-05-19T16:28:01.731Z,2.28
2023-05-19T16:30:28.592Z,3.10
2023-05-19T16:32:55.449Z,2.50
2023-05-19T16:35:22.355Z,2.53
2023-05-19T16:37:49.214Z,2.20
2023-05-19T16:40:15.885Z,2.40
2023-05-19T16:42:42.719Z,2.30
2023-05-19T16:45:10.005Z,2.47
2023-05-19T16:47:36.938Z,2.45
2023-05-19T16:50:04.227Z,2.20
2023-05-19T16:52:31.121Z,3.10
2023-05-19T16:54:57.978Z,2.10
2023-05-19T16:57:24.639Z,2.05
2023-05-19T16:59:51.426Z,2.38
2023-05-19T17:02:18.499Z,2.40
2023-05-19T17:04:45.175Z,2.33
2023-05-19T17:07:15.748Z,2.00
2023-05-19T17:09:43.449Z,2.15
2023-05-19T17:12:10.941Z,2.10
2023-05-19T17:14:37.784Z,2.33
2023-05-19T17:17:04.867Z,2.53
2023-05-19T17:19:32.037Z,2.28
2023-05-19T17:22:02.115Z,2.00
2023-05-19T17:24:29.088Z,2.40
2023-05-19T17:26:55.859Z,2.30
2023-05-19T17:29:22.600Z,2.33
2023-05-19T17:31:49.339Z,2.28
2023-05-19T17:34:16.018Z,2.08
2023-05-19T17:36:42.822Z,2.50
2023-05-19T17:39:09.500Z,2.20
2023-05-19T17:41:36.394Z,2.20
2023-05-19T17:44:03.895Z,2.17
2023-05-19T17:46:34.681Z,2.00
2023-05-19T17:49:02.006Z,2.28
2023-05-19T17:51:29.057Z,2.53
2023-05-19T17:53:55.915Z,2.22
2023-05-19T17:56:23.009Z,2.40
2023-05-19T17:58:50.066Z,2.72
2023-05-19T18:01:18.068Z,2.50
2023-05-19T18:03:49.523Z,2.17
2023-05-19T18:06:20.645Z,2.40
2023-05-19T18:08:50.576Z,2.33
2023-05-19T18:11:18.575Z,2.45
2023-05-19T18:13:45.604Z,2.50
2023-05-19T18:16:12.721Z,2.63
2023-05-19T18:18:43.590Z,2.67
2023-05-19T18:21:17.978Z,2.30
2023-05-19T18:23:45.805Z,2.50
2023-05-19T18:26:16.070Z,2.42
2023-05-19T18:28:43.389Z,2.10
2023-05-19T18:31:15.836Z,2.50
2023-05-19T18:33:43.225Z,2.50
2023-05-19T18:36:10.105Z,2.35
2023-05-19T18:38:36.782Z,2.53
2023-05-19T18:41:03.380Z,3.10
2023-05-19T18:43:32.359Z,2.70
2023-05-19T18:45:59.086Z,2.50
2023-05-19T18:48:25.922Z,3.50
2023-05-19T18:50:52.735Z,4.03
2023-05-19T18:53:21.279Z,3.25
2023-05-19T18:55:47.939Z,3.40
2023-05-19T18:58:18.404Z,2.97
2023-05-19T19:00:45.324Z,3.28
2023-05-19T19:03:12.188Z,3.60
2023-05-19T19:05:39.863Z,2.85
2023-05-19T19:08:06.619Z,3.70
2023-05-19T19:10:34.768Z,3.90
2023-05-19T19:13:02.008Z,3.80
2023-05-19T19:15:28.833Z,3.35
2023-05-19T19:17:55.483Z,3.58
2023-05-19T19:20:22.188Z,3.20
2023-05-19T19:22:48.788Z,3.60
2023-05-19T19:25:15.699Z,3.33
2023-05-19T19:27:42.580Z,3.03
2023-05-19T19:30:09.561Z,3.58
2023-05-19T19:32:36.294Z,3.63
2023-05-19T19:35:02.969Z,3.00
2023-05-19T19:37:29.628Z,3.00
2023-05-19T19:39:56.252Z,2.75
2023-05-19T19:42:23.102Z,4.10
2023-05-19T19:44:49.841Z,3.20
2023-05-19T19:47:16.554Z,3.00
2023-05-19T19:49:43.238Z,2.75
2023-05-19T19:52:10.068Z,3.20
2023-05-19T19:54:36.935Z,3.30
2023-05-19T19:57:04.145Z,2.97
2023-05-19T19:59:31.222Z,3.10
2023-05-19T20:01:58.647Z,3.25
2023-05-19T20:04:25.580Z,3.20
2023-05-19T20:06:52.606Z,3.05
2023-05-19T20:09:22.293Z,2.90
2023-05-19T20:11:49.586Z,3.70
2023-05-19T20:14:18.839Z,3.80
2023-05-19T20:16:46.766Z,5.30
2023-05-19T20:19:16.618Z,3.78
2023-05-19T20:21:43.573Z,3.85
2023-05-19T20:24:10.679Z,3.67
2023-05-19T20:26:37.479Z,3.88
2023-05-19T20:29:04.234Z,4.00
2023-05-19T20:31:30.973Z,3.40
2023-05-19T20:33:59.379Z,3.20
2023-05-19T20:36:27.660Z,3.67
2023-05-19T20:38:54.582Z,3.75
2023-05-19T20:41:22.540Z,3.42
2023-05-19T20:43:49.421Z,3.10
2023-05-19T20:46:16.352Z,3.55
2023-05-19T20:48:43.071Z,3.70
2023-05-19T20:51:09.847Z,4.10
2023-05-19T20:53:36.910Z,3.47
2023-05-19T20:56:05.553Z,3.65
2023-05-19T20:58:32.665Z,3.85
2023-05-19T21:00:59.644Z,3.70
2023-05-19T21:03:30.370Z,3.60
2023-05-19T21:05:57.281Z,4.28
2023-05-19T21:08:25.655Z,3.50
2023-05-19T21:10:52.729Z,3.83
2023-05-19T21:13:24.965Z,4.25
2023-05-19T21:15:51.953Z,3.80
2023-05-19T21:18:21.387Z,3.75
2023-05-19T21:20:48.520Z,4.20
2023-05-19T21:23:15.412Z,4.18
2023-05-19T21:25:44.517Z,4.22
2023-05-19T21:28:11.963Z,5.07
2023-05-19T21:30:38.621Z,4.95
2023-05-19T21:33:05.421Z,3.88
2023-05-19T21:35:32.291Z,4.72
2023-05-19T21:38:03.910Z,4.70
2023-05-19T21:40:37.798Z,4.32
2023-05-19T21:43:06.057Z,4.88
2023-05-19T21:45:32.786Z,4.20
2023-05-19T21:47:59.574Z,4.88
2023-05-19T21:50:27.086Z,3.60
2023-05-19T21:52:54.039Z,3.70
2023-05-19T21:55:32.100Z,3.50
2023-05-19T21:58:00.871Z,4.60
2023-05-19T22:00:33.255Z,6.00
2023-05-19T22:03:00.788Z,4.45
2023-05-19T22:05:30.383Z,4.38
2023-05-19T22:07:57.628Z,4.47
2023-05-19T22:10:24.447Z,3.80
2023-05-19T22:12:51.418Z,3.78
2023-05-19T22:15:18.590Z,3.50
2023-05-19T22:17:45.627Z,3.72
2023-05-19T22:20:12.673Z,3.70
2023-05-19T22:22:39.608Z,3.92
2023-05-19T22:25:06.981Z,3.65
2023-05-19T22:27:33.994Z,4.35
2023-05-19T22:30:01.026Z,4.20
2023-05-19T22:32:28.017Z,4.38
2023-05-19T22:34:55.009Z,4.15
2023-05-19T22:37:23.920Z,4.30
2023-05-19T22:39:51.495Z,3.42
2023-05-19T22:42:18.724Z,3.40
2023-05-19T22:44:45.880Z,3.30
2023-05-19T22:47:13.950Z,3.10
2023-05-19T22:49:41.567Z,3.00
2023-05-19T22:52:10.526Z,3.20
2023-05-19T22:54:37.707Z,3.50
2023-05-19T22:57:05.156Z,2.78
2023-05-19T22:59:32.071Z,3.35
2023-05-19T23:01:58.717Z,3.72
2023-05-19T23:04:25.325Z,3.72
2023-05-19T23:06:52.444Z,3.58
2023-05-19T23:09:19.192Z,3.22
2023-05-19T23:11:46.249Z,3.72
2023-05-19T23:14:13.115Z,3.22
2023-05-19T23:16:40.313Z,3.60
2023-05-19T23:19:07.189Z,3.45
2023-05-19T23:21:33.955Z,2.92
2023-05-19T23:24:00.652Z,2.83
2023-05-19T23:26:27.412Z,3.22
2023-05-19T23:28:54.033Z,2.90
2023-05-19T23:31:20.646Z,3.33
2023-05-19T23:33:47.459Z,2.65
2023-05-19T23:36:14.514Z,3.10
2023-05-19T23:38:41.255Z,3.17
2023-05-19T23:41:08.388Z,2.90
2023-05-19T23:43:35.129Z,3.00
2023-05-19T23:46:01.940Z,2.80
2023-05-19T23:48:29.449Z,2.78
2023-05-19T23:50:57.464Z,3.30
2023-05-19T23:53:24.582Z,2.85
2023-05-19T23:55:51.678Z,2.95
2023-05-19T23:58:19.098Z,2.95
